sensor_id;sensor_type;location;lat;lon;timestamp;P1;durP1;ratioP1;P2;durP2;ratioP2
32427;SDS011;18882;50.952;4.366;2022-08-07T00:00:09;1.92;;;1.48;;
32427;SDS011;18882;50.952;4.366;2022-08-07T00:02:35;1.25;;;1.13;;
32427;SDS011;18882;50.952;4.366;2022-08-07T00:05:01;1.65;;;1.42;;
32427;SDS011;18882;50.952;4.366;2022-08-07T00:07:27;4.03;;;1.05;;
32427;SDS011;18882;50.952;4.366;2022-08-07T00:09:53;1.67;;;1.23;;
32427;SDS011;18882;50.952;4.366;2022-08-07T00:12:18;1.33;;;1.08;;
32427;SDS011;18882;50.952;4.366;2022-08-07T00:14:44;1.60;;;1.40;;
32427;SDS011;18882;50.952;4.366;2022-08-07T00:17:09;3.83;;;1.10;;
32427;SDS011;18882;50.952;4.366;2022-08-07T00:19:35;2.50;;;1.30;;
32427;SDS011;18882;50.952;4.366;2022-08-07T00:22:01;1.40;;;0.90;;
32427;SDS011;18882;50.952;4.366;2022-08-07T00:24:27;3.72;;;1.30;;
32427;SDS011;18882;50.952;4.366;2022-08-07T00:26:52;4.55;;;1.60;;
32427;SDS011;18882;50.952;4.366;2022-08-07T00:29:18;6.15;;;1.17;;
32427;SDS011;18882;50.952;4.366;2022-08-07T00:31:49;3.40;;;1.08;;
32427;SDS011;18882;50.952;4.366;2022-08-07T00:34:16;0.77;;;0.77;;
32427;SDS011;18882;50.952;4.366;2022-08-07T00:36:42;1.45;;;0.90;;
32427;SDS011;18882;50.952;4.366;2022-08-07T00:39:08;3.13;;;1.40;;
32427;SDS011;18882;50.952;4.366;2022-08-07T00:41:34;7.57;;;1.50;;
32427;SDS011;18882;50.952;4.366;2022-08-07T00:44:00;5.00;;;1.67;;
32427;SDS011;18882;50.952;4.366;2022-08-07T00:46:26;2.55;;;1.80;;
32427;SDS011;18882;50.952;4.366;2022-08-07T00:48:51;3.05;;;1.38;;
32427;SDS011;18882;50.952;4.366;2022-08-07T00:51:17;1.35;;;1.25;;
32427;SDS011;18882;50.952;4.366;2022-08-07T00:53:43;7.35;;;1.52;;
32427;SDS011;18882;50.952;4.366;2022-08-07T00:56:08;3.70;;;1.42;;
32427;SDS011;18882;50.952;4.366;2022-08-07T00:58:36;3.65;;;1.40;;
32427;SDS011;18882;50.952;4.366;2022-08-07T01:01:05;3.55;;;1.90;;
32427;SDS011;18882;50.952;4.366;2022-08-07T01:03:31;3.60;;;1.75;;
32427;SDS011;18882;50.952;4.366;2022-08-07T01:05:56;3.67;;;1.42;;
32427;SDS011;18882;50.952;4.366;2022-08-07T01:08:22;2.22;;;1.85;;
32427;SDS011;18882;50.952;4.366;2022-08-07T01:10:48;6.22;;;2.20;;
32427;SDS011;18882;50.952;4.366;2022-08-07T01:13:14;7.13;;;2.10;;
32427;SDS011;18882;50.952;4.366;2022-08-07T01:15:39;1.85;;;1.70;;
32427;SDS011;18882;50.952;4.366;2022-08-07T01:18:06;4.55;;;1.70;;
32427;SDS011;18882;50.952;4.366;2022-08-07T01:20:33;9.98;;;1.67;;
32427;SDS011;18882;50.952;4.366;2022-08-07T01:23:05;1.33;;;1.23;;
32427;SDS011;18882;50.952;4.366;2022-08-07T01:25:32;5.70;;;2.10;;
32427;SDS011;18882;50.952;4.366;2022-08-07T01:27:58;5.10;;;2.20;;
32427;SDS011;18882;50.952;4.366;2022-08-07T01:30:24;3.85;;;1.80;;
32427;SDS011;18882;50.952;4.366;2022-08-07T01:32:51;6.50;;;2.08;;
32427;SDS011;18882;50.952;4.366;2022-08-07T01:35:17;2.60;;;1.80;;
32427;SDS011;18882;50.952;4.366;2022-08-07T01:37:43;7.75;;;2.05;;
32427;SDS011;18882;50.952;4.366;2022-08-07T01:40:09;2.22;;;1.58;;
32427;SDS011;18882;50.952;4.366;2022-08-07T01:42:37;3.90;;;1.48;;
32427;SDS011;18882;50.952;4.366;2022-08-07T01:45:03;2.33;;;1.40;;
32427;SDS011;18882;50.952;4.366;2022-08-07T01:47:30;5.38;;;1.30;;
32427;SDS011;18882;50.952;4.366;2022-08-07T01:49:55;7.80;;;1.48;;
32427;SDS011;18882;50.952;4.366;2022-08-07T01:52:22;9.70;;;2.00;;
32427;SDS011;18882;50.952;4.366;2022-08-07T01:54:49;3.53;;;1.80;;
32427;SDS011;18882;50.952;4.366;2022-08-07T01:57:19;4.25;;;1.42;;
32427;SDS011;18882;50.952;4.366;2022-08-07T02:02:33;4.47;;;1.60;;
32427;SDS011;18882;50.952;4.366;2022-08-07T02:05:12;5.32;;;1.63;;
32427;SDS011;18882;50.952;4.366;2022-08-07T02:07:43;2.65;;;1.80;;
32427;SDS011;18882;50.952;4.366;2022-08-07T02:10:12;6.82;;;1.70;;
32427;SDS011;18882;50.952;4.366;2022-08-07T02:12:41;6.07;;;2.22;;
32427;SDS011;18882;50.952;4.366;2022-08-07T02:15:08;2.88;;;1.67;;
32427;SDS011;18882;50.952;4.366;2022-08-07T02:17:35;3.03;;;1.85;;
32427;SDS011;18882;50.952;4.366;2022-08-07T02:20:03;6.13;;;2.13;;
32427;SDS011;18882;50.952;4.366;2022-08-07T02:22:30;4.35;;;2.13;;
32427;SDS011;18882;50.952;4.366;2022-08-07T02:24:57;3.53;;;2.40;;
32427;SDS011;18882;50.952;4.366;2022-08-07T02:27:24;3.33;;;2.20;;
32427;SDS011;18882;50.952;4.366;2022-08-07T02:29:52;6.93;;;2.33;;
32427;SDS011;18882;50.952;4.366;2022-08-07T02:32:20;5.22;;;2.65;;
32427;SDS011;18882;50.952;4.366;2022-08-07T02:34:48;5.50;;;2.15;;
32427;SDS011;18882;50.952;4.366;2022-08-07T02:37:14;4.20;;;2.10;;
32427;SDS011;18882;50.952;4.366;2022-08-07T02:39:41;4.10;;;2.20;;
32427;SDS011;18882;50.952;4.366;2022-08-07T02:42:10;3.45;;;2.72;;
32427;SDS011;18882;50.952;4.366;2022-08-07T02:44:37;2.50;;;2.30;;
32427;SDS011;18882;50.952;4.366;2022-08-07T02:47:05;6.68;;;2.40;;
32427;SDS011;18882;50.952;4.366;2022-08-07T02:49:32;3.78;;;2.65;;
32427;SDS011;18882;50.952;4.366;2022-08-07T02:51:58;4.40;;;2.35;;
32427;SDS011;18882;50.952;4.366;2022-08-07T02:54:27;5.43;;;2.47;;
32427;SDS011;18882;50.952;4.366;2022-08-07T02:56:55;4.20;;;2.30;;
32427;SDS011;18882;50.952;4.366;2022-08-07T02:59:25;4.70;;;2.10;;
32427;SDS011;18882;50.952;4.366;2022-08-07T03:01:52;5.72;;;2.42;;
32427;SDS011;18882;50.952;4.366;2022-08-07T03:04:20;5.28;;;2.50;;
32427;SDS011;18882;50.952;4.366;2022-08-07T03:06:47;2.42;;;2.22;;
32427;SDS011;18882;50.952;4.366;2022-08-07T03:09:15;3.13;;;2.47;;
32427;SDS011;18882;50.952;4.366;2022-08-07T03:11:43;3.45;;;2.65;;
32427;SDS011;18882;50.952;4.366;2022-08-07T03:14:10;4.78;;;2.53;;
32427;SDS011;18882;50.952;4.366;2022-08-07T03:16:36;4.15;;;2.50;;
32427;SDS011;18882;50.952;4.366;2022-08-07T03:19:02;3.72;;;2.50;;
32427;SDS011;18882;50.952;4.366;2022-08-07T03:21:28;3.65;;;2.60;;
32427;SDS011;18882;50.952;4.366;2022-08-07T03:23:55;4.95;;;2.67;;
32427;SDS011;18882;50.952;4.366;2022-08-07T03:26:23;7.40;;;2.88;;
32427;SDS011;18882;50.952;4.366;2022-08-07T03:28:52;7.43;;;3.30;;
32427;SDS011;18882;50.952;4.366;2022-08-07T03:31:20;4.90;;;3.38;;
32427;SDS011;18882;50.952;4.366;2022-08-07T03:33:52;5.75;;;3.17;;
32427;SDS011;18882;50.952;4.366;2022-08-07T03:36:24;5.85;;;3.00;;
32427;SDS011;18882;50.952;4.366;2022-08-07T03:38:52;7.10;;;3.55;;
32427;SDS011;18882;50.952;4.366;2022-08-07T03:41:28;8.13;;;3.72;;
32427;SDS011;18882;50.952;4.366;2022-08-07T03:43:55;4.32;;;3.33;;
32427;SDS011;18882;50.952;4.366;2022-08-07T03:46:21;5.95;;;3.50;;
32427;SDS011;18882;50.952;4.366;2022-08-07T03:48:48;5.78;;;3.38;;
32427;SDS011;18882;50.952;4.366;2022-08-07T03:51:15;6.30;;;3.38;;
32427;SDS011;18882;50.952;4.366;2022-08-07T03:53:42;9.95;;;3.60;;
32427;SDS011;18882;50.952;4.366;2022-08-07T03:56:09;3.90;;;2.85;;
32427;SDS011;18882;50.952;4.366;2022-08-07T03:58:35;4.60;;;3.40;;
32427;SDS011;18882;50.952;4.366;2022-08-07T04:01:02;8.68;;;4.03;;
32427;SDS011;18882;50.952;4.366;2022-08-07T04:03:29;4.70;;;3.20;;
32427;SDS011;18882;50.952;4.366;2022-08-07T04:05:55;7.00;;;3.25;;
32427;SDS011;18882;50.952;4.366;2022-08-07T04:08:21;4.70;;;3.25;;
32427;SDS011;18882;50.952;4.366;2022-08-07T04:10:47;5.10;;;3.08;;
32427;SDS011;18882;50.952;4.366;2022-08-07T04:13:14;4.97;;;3.50;;
32427;SDS011;18882;50.952;4.366;2022-08-07T04:15:40;7.15;;;3.20;;
32427;SDS011;18882;50.952;4.366;2022-08-07T04:18:07;7.65;;;3.50;;
32427;SDS011;18882;50.952;4.366;2022-08-07T04:20:33;8.20;;;3.83;;
32427;SDS011;18882;50.952;4.366;2022-08-07T04:22:58;5.38;;;3.33;;
32427;SDS011;18882;50.952;4.366;2022-08-07T04:25:25;5.50;;;3.63;;
32427;SDS011;18882;50.952;4.366;2022-08-07T04:27:52;7.00;;;3.30;;
32427;SDS011;18882;50.952;4.366;2022-08-07T04:30:18;5.30;;;3.47;;
32427;SDS011;18882;50.952;4.366;2022-08-07T04:32:44;7.82;;;3.85;;
32427;SDS011;18882;50.952;4.366;2022-08-07T04:35:10;6.75;;;3.75;;
32427;SDS011;18882;50.952;4.366;2022-08-07T04:37:36;7.25;;;4.05;;
32427;SDS011;18882;50.952;4.366;2022-08-07T04:40:03;6.78;;;4.05;;
32427;SDS011;18882;50.952;4.366;2022-08-07T04:42:29;7.55;;;4.03;;
32427;SDS011;18882;50.952;4.366;2022-08-07T04:44:58;6.15;;;3.45;;
32427;SDS011;18882;50.952;4.366;2022-08-07T04:50:17;7.00;;;4.63;;
32427;SDS011;18882;50.952;4.366;2022-08-07T04:53:17;5.40;;;3.75;;
32427;SDS011;18882;50.952;4.366;2022-08-07T04:55:58;10.10;;;4.50;;
32427;SDS011;18882;50.952;4.366;2022-08-07T05:01:23;5.07;;;3.38;;
32427;SDS011;18882;50.952;4.366;2022-08-07T05:04:39;7.57;;;4.30;;
32427;SDS011;18882;50.952;4.366;2022-08-07T05:07:20;7.85;;;4.53;;
32427;SDS011;18882;50.952;4.366;2022-08-07T05:10:07;7.35;;;4.28;;
32427;SDS011;18882;50.952;4.366;2022-08-07T05:12:51;8.15;;;4.38;;
32427;SDS011;18882;50.952;4.366;2022-08-07T05:15:28;6.55;;;3.70;;
32427;SDS011;18882;50.952;4.366;2022-08-07T05:18:00;6.03;;;3.85;;
32427;SDS011;18882;50.952;4.366;2022-08-07T05:20:33;6.97;;;3.92;;
32427;SDS011;18882;50.952;4.366;2022-08-07T05:23:06;7.20;;;3.85;;
32427;SDS011;18882;50.952;4.366;2022-08-07T05:25:35;8.30;;;4.15;;
32427;SDS011;18882;50.952;4.366;2022-08-07T05:28:04;4.32;;;3.92;;
32427;SDS011;18882;50.952;4.366;2022-08-07T05:30:32;9.00;;;4.32;;
32427;SDS011;18882;50.952;4.366;2022-08-07T05:33:00;6.13;;;4.25;;
32427;SDS011;18882;50.952;4.366;2022-08-07T05:35:28;6.05;;;3.83;;
32427;SDS011;18882;50.952;4.366;2022-08-07T05:37:56;7.90;;;4.28;;
32427;SDS011;18882;50.952;4.366;2022-08-07T05:40:23;7.65;;;4.53;;
32427;SDS011;18882;50.952;4.366;2022-08-07T05:42:51;6.00;;;4.53;;
32427;SDS011;18882;50.952;4.366;2022-08-07T05:45:18;7.80;;;4.50;;
32427;SDS011;18882;50.952;4.366;2022-08-07T05:47:44;9.50;;;4.60;;
32427;SDS011;18882;50.952;4.366;2022-08-07T05:50:10;7.78;;;4.55;;
32427;SDS011;18882;50.952;4.366;2022-08-07T05:52:36;15.70;;;4.40;;
32427;SDS011;18882;50.952;4.366;2022-08-07T05:55:02;5.20;;;3.75;;
32427;SDS011;18882;50.952;4.366;2022-08-07T05:57:28;10.15;;;4.38;;
32427;SDS011;18882;50.952;4.366;2022-08-07T05:59:55;7.70;;;4.20;;
32427;SDS011;18882;50.952;4.366;2022-08-07T06:02:24;9.10;;;4.82;;
32427;SDS011;18882;50.952;4.366;2022-08-07T06:04:54;6.70;;;4.13;;
32427;SDS011;18882;50.952;4.366;2022-08-07T06:07:23;7.07;;;4.00;;
32427;SDS011;18882;50.952;4.366;2022-08-07T06:09:49;6.57;;;4.20;;
32427;SDS011;18882;50.952;4.366;2022-08-07T06:12:15;6.55;;;4.43;;
32427;SDS011;18882;50.952;4.366;2022-08-07T06:14:41;6.00;;;3.83;;
32427;SDS011;18882;50.952;4.366;2022-08-07T06:17:07;6.00;;;3.83;;
32427;SDS011;18882;50.952;4.366;2022-08-07T06:19:34;7.88;;;3.95;;
32427;SDS011;18882;50.952;4.366;2022-08-07T06:22:00;10.82;;;4.53;;
32427;SDS011;18882;50.952;4.366;2022-08-07T06:24:27;4.93;;;3.38;;
32427;SDS011;18882;50.952;4.366;2022-08-07T06:26:53;8.75;;;3.92;;
32427;SDS011;18882;50.952;4.366;2022-08-07T06:29:19;5.20;;;3.50;;
32427;SDS011;18882;50.952;4.366;2022-08-07T06:31:51;6.50;;;4.30;;
32427;SDS011;18882;50.952;4.366;2022-08-07T06:34:16;6.72;;;3.63;;
32427;SDS011;18882;50.952;4.366;2022-08-07T06:36:42;5.80;;;3.50;;
32427;SDS011;18882;50.952;4.366;2022-08-07T06:39:08;10.15;;;3.20;;
32427;SDS011;18882;50.952;4.366;2022-08-07T06:41:44;7.50;;;3.38;;
32427;SDS011;18882;50.952;4.366;2022-08-07T06:44:13;6.18;;;3.30;;
32427;SDS011;18882;50.952;4.366;2022-08-07T06:46:40;5.22;;;2.88;;
32427;SDS011;18882;50.952;4.366;2022-08-07T06:49:06;4.47;;;2.70;;
32427;SDS011;18882;50.952;4.366;2022-08-07T06:51:32;3.70;;;2.70;;
32427;SDS011;18882;50.952;4.366;2022-08-07T06:54:00;6.50;;;2.67;;
32427;SDS011;18882;50.952;4.366;2022-08-07T06:56:28;3.70;;;2.53;;
32427;SDS011;18882;50.952;4.366;2022-08-07T06:59:08;5.80;;;3.03;;
32427;SDS011;18882;50.952;4.366;2022-08-07T07:01:44;6.93;;;3.08;;
32427;SDS011;18882;50.952;4.366;2022-08-07T07:04:11;3.58;;;2.72;;
32427;SDS011;18882;50.952;4.366;2022-08-07T07:06:38;5.78;;;2.47;;
32427;SDS011;18882;50.952;4.366;2022-08-07T07:09:17;7.20;;;2.67;;
32427;SDS011;18882;50.952;4.366;2022-08-07T07:14:23;9.57;;;3.00;;
32427;SDS011;18882;50.952;4.366;2022-08-07T07:16:52;4.88;;;2.63;;
32427;SDS011;18882;50.952;4.366;2022-08-07T07:19:26;3.15;;;2.08;;
32427;SDS011;18882;50.952;4.366;2022-08-07T07:21:56;3.38;;;1.95;;
32427;SDS011;18882;50.952;4.366;2022-08-07T07:24:23;6.00;;;2.28;;
32427;SDS011;18882;50.952;4.366;2022-08-07T07:26:49;5.97;;;2.65;;
32427;SDS011;18882;50.952;4.366;2022-08-07T07:29:17;3.35;;;2.65;;
32427;SDS011;18882;50.952;4.366;2022-08-07T07:31:48;5.03;;;2.10;;
32427;SDS011;18882;50.952;4.366;2022-08-07T07:34:17;3.15;;;2.10;;
32427;SDS011;18882;50.952;4.366;2022-08-07T07:36:47;6.38;;;1.92;;
32427;SDS011;18882;50.952;4.366;2022-08-07T07:39:14;3.80;;;2.15;;
32427;SDS011;18882;50.952;4.366;2022-08-07T07:41:41;4.18;;;2.17;;
32427;SDS011;18882;50.952;4.366;2022-08-07T07:44:12;3.63;;;2.03;;
32427;SDS011;18882;50.952;4.366;2022-08-07T07:46:40;2.28;;;1.48;;
32427;SDS011;18882;50.952;4.366;2022-08-07T07:49:07;2.53;;;2.05;;
32427;SDS011;18882;50.952;4.366;2022-08-07T07:51:33;2.90;;;1.92;;
32427;SDS011;18882;50.952;4.366;2022-08-07T07:54:03;2.00;;;1.58;;
32427;SDS011;18882;50.952;4.366;2022-08-07T07:56:30;3.28;;;1.95;;
32427;SDS011;18882;50.952;4.366;2022-08-07T07:59:01;3.15;;;2.00;;
32427;SDS011;18882;50.952;4.366;2022-08-07T08:01:32;2.13;;;1.92;;
32427;SDS011;18882;50.952;4.366;2022-08-07T08:04:02;4.25;;;2.05;;
32427;SDS011;18882;50.952;4.366;2022-08-07T08:06:30;2.33;;;1.60;;
32427;SDS011;18882;50.952;4.366;2022-08-07T08:08:58;3.83;;;1.73;;
32427;SDS011;18882;50.952;4.366;2022-08-07T08:11:26;4.70;;;1.73;;
32427;SDS011;18882;50.952;4.366;2022-08-07T08:13:53;3.17;;;1.90;;
32427;SDS011;18882;50.952;4.366;2022-08-07T08:16:19;3.58;;;1.67;;
32427;SDS011;18882;50.952;4.366;2022-08-07T08:18:46;5.85;;;1.77;;
32427;SDS011;18882;50.952;4.366;2022-08-07T08:21:15;2.30;;;1.65;;
32427;SDS011;18882;50.952;4.366;2022-08-07T08:24:04;1.95;;;1.30;;
32427;SDS011;18882;50.952;4.366;2022-08-07T08:26:49;2.08;;;1.75;;
32427;SDS011;18882;50.952;4.366;2022-08-07T08:29:29;4.13;;;1.45;;
32427;SDS011;18882;50.952;4.366;2022-08-07T08:32:01;2.15;;;1.75;;
32427;SDS011;18882;50.952;4.366;2022-08-07T08:34:30;2.08;;;1.50;;
32427;SDS011;18882;50.952;4.366;2022-08-07T08:36:59;6.22;;;1.27;;
32427;SDS011;18882;50.952;4.366;2022-08-07T08:39:31;3.13;;;1.48;;
32427;SDS011;18882;50.952;4.366;2022-08-07T08:42:03;4.28;;;1.33;;
32427;SDS011;18882;50.952;4.366;2022-08-07T08:47:48;2.45;;;1.40;;
32427;SDS011;18882;50.952;4.366;2022-08-07T08:52:56;1.25;;;1.15;;
32427;SDS011;18882;50.952;4.366;2022-08-07T08:55:31;2.13;;;1.75;;
32427;SDS011;18882;50.952;4.366;2022-08-07T08:58:11;3.70;;;1.67;;
32427;SDS011;18882;50.952;4.366;2022-08-07T09:07:10;3.00;;;1.25;;
32427;SDS011;18882;50.952;4.366;2022-08-07T09:09:50;1.60;;;1.48;;
32427;SDS011;18882;50.952;4.366;2022-08-07T09:17:40;1.50;;;1.27;;
32427;SDS011;18882;50.952;4.366;2022-08-07T09:28:35;2.40;;;1.15;;
32427;SDS011;18882;50.952;4.366;2022-08-07T09:36:33;4.50;;;1.27;;
32427;SDS011;18882;50.952;4.366;2022-08-07T09:39:24;3.20;;;1.20;;
32427;SDS011;18882;50.952;4.366;2022-08-07T09:48:08;1.58;;;1.45;;
32427;SDS011;18882;50.952;4.366;2022-08-07T09:53:46;4.10;;;1.50;;
32427;SDS011;18882;50.952;4.366;2022-08-07T10:10:47;1.88;;;1.00;;
32427;SDS011;18882;50.952;4.366;2022-08-07T10:22:00;1.95;;;1.20;;
32427;SDS011;18882;50.952;4.366;2022-08-07T10:24:48;2.88;;;1.50;;
32427;SDS011;18882;50.952;4.366;2022-08-07T10:30:44;1.80;;;1.17;;
32427;SDS011;18882;50.952;4.366;2022-08-07T10:36:14;1.05;;;0.82;;
32427;SDS011;18882;50.952;4.366;2022-08-07T10:39:11;1.52;;;1.42;;
32427;SDS011;18882;50.952;4.366;2022-08-07T10:41:54;2.25;;;1.15;;
32427;SDS011;18882;50.952;4.366;2022-08-07T10:44:33;2.88;;;1.30;;
32427;SDS011;18882;50.952;4.366;2022-08-07T10:49:49;1.50;;;1.23;;
32427;SDS011;18882;50.952;4.366;2022-08-07T10:52:28;1.25;;;0.90;;
32427;SDS011;18882;50.952;4.366;2022-08-07T10:55:02;1.00;;;0.75;;
32427;SDS011;18882;50.952;4.366;2022-08-07T10:57:44;2.20;;;1.00;;
32427;SDS011;18882;50.952;4.366;2022-08-07T11:00:29;1.73;;;1.00;;
32427;SDS011;18882;50.952;4.366;2022-08-07T11:03:05;2.05;;;1.23;;
32427;SDS011;18882;50.952;4.366;2022-08-07T11:05:53;3.03;;;1.50;;
32427;SDS011;18882;50.952;4.366;2022-08-07T11:11:30;1.88;;;1.33;;
32427;SDS011;18882;50.952;4.366;2022-08-07T11:14:24;0.80;;;0.80;;
32427;SDS011;18882;50.952;4.366;2022-08-07T11:17:00;2.13;;;1.33;;
32427;SDS011;18882;50.952;4.366;2022-08-07T11:19:39;2.25;;;0.93;;
32427;SDS011;18882;50.952;4.366;2022-08-07T11:25:13;2.60;;;1.20;;
32427;SDS011;18882;50.952;4.366;2022-08-07T11:30:55;1.38;;;0.95;;
32427;SDS011;18882;50.952;4.366;2022-08-07T11:41:28;2.72;;;1.42;;
32427;SDS011;18882;50.952;4.366;2022-08-07T11:44:25;1.50;;;1.00;;
32427;SDS011;18882;50.952;4.366;2022-08-07T11:52:51;7.75;;;1.35;;
32427;SDS011;18882;50.952;4.366;2022-08-07T11:58:29;2.03;;;0.88;;
32427;SDS011;18882;50.952;4.366;2022-08-07T12:01:34;2.90;;;1.05;;
32427;SDS011;18882;50.952;4.366;2022-08-07T12:07:15;0.90;;;0.80;;
32427;SDS011;18882;50.952;4.366;2022-08-07T12:09:58;1.33;;;1.00;;
32427;SDS011;18882;50.952;4.366;2022-08-07T12:12:36;1.60;;;0.93;;
32427;SDS011;18882;50.952;4.366;2022-08-07T12:15:29;1.00;;;0.90;;
32427;SDS011;18882;50.952;4.366;2022-08-07T12:18:00;2.05;;;1.58;;
32427;SDS011;18882;50.952;4.366;2022-08-07T12:20:47;2.47;;;1.40;;
32427;SDS011;18882;50.952;4.366;2022-08-07T12:23:51;0.98;;;0.80;;
32427;SDS011;18882;50.952;4.366;2022-08-07T12:26:30;1.10;;;0.85;;
32427;SDS011;18882;50.952;4.366;2022-08-07T12:31:50;1.42;;;0.93;;
32427;SDS011;18882;50.952;4.366;2022-08-07T12:34:29;4.53;;;1.08;;
32427;SDS011;18882;50.952;4.366;2022-08-07T12:37:00;1.05;;;0.85;;
32427;SDS011;18882;50.952;4.366;2022-08-07T12:39:28;3.38;;;1.10;;
32427;SDS011;18882;50.952;4.366;2022-08-07T12:41:55;1.02;;;0.93;;
32427;SDS011;18882;50.952;4.366;2022-08-07T12:44:23;3.22;;;1.02;;
32427;SDS011;18882;50.952;4.366;2022-08-07T12:49:51;3.65;;;1.20;;
32427;SDS011;18882;50.952;4.366;2022-08-07T12:52:35;1.58;;;1.13;;
32427;SDS011;18882;50.952;4.366;2022-08-07T12:55:20;2.33;;;1.10;;
32427;SDS011;18882;50.952;4.366;2022-08-07T12:57:46;1.27;;;1.17;;
32427;SDS011;18882;50.952;4.366;2022-08-07T13:00:13;1.40;;;1.30;;
32427;SDS011;18882;50.952;4.366;2022-08-07T13:05:35;1.30;;;1.05;;
32427;SDS011;18882;50.952;4.366;2022-08-07T13:17:03;2.42;;;1.25;;
32427;SDS011;18882;50.952;4.366;2022-08-07T13:19:41;2.20;;;1.20;;
32427;SDS011;18882;50.952;4.366;2022-08-07T13:25:39;2.22;;;0.70;;
32427;SDS011;18882;50.952;4.366;2022-08-07T13:28:11;1.80;;;0.98;;
32427;SDS011;18882;50.952;4.366;2022-08-07T13:30:47;1.30;;;0.90;;
32427;SDS011;18882;50.952;4.366;2022-08-07T13:35:55;2.28;;;1.30;;
32427;SDS011;18882;50.952;4.366;2022-08-07T13:38:36;1.20;;;1.05;;
32427;SDS011;18882;50.952;4.366;2022-08-07T13:43:58;1.10;;;0.93;;
32427;SDS011;18882;50.952;4.366;2022-08-07T13:46:28;1.83;;;1.38;;
32427;SDS011;18882;50.952;4.366;2022-08-07T13:48:57;2.15;;;1.40;;
32427;SDS011;18882;50.952;4.366;2022-08-07T13:51:28;2.38;;;1.58;;
32427;SDS011;18882;50.952;4.366;2022-08-07T13:54:06;1.63;;;1.10;;
32427;SDS011;18882;50.952;4.366;2022-08-07T13:56:37;3.67;;;1.38;;
32427;SDS011;18882;50.952;4.366;2022-08-07T13:59:12;3.05;;;1.52;;
32427;SDS011;18882;50.952;4.366;2022-08-07T14:01:55;2.38;;;1.30;;
32427;SDS011;18882;50.952;4.366;2022-08-07T14:04:50;3.17;;;1.60;;
32427;SDS011;18882;50.952;4.366;2022-08-07T14:07:28;3.10;;;1.48;;
32427;SDS011;18882;50.952;4.366;2022-08-07T14:09:58;2.35;;;1.25;;
32427;SDS011;18882;50.952;4.366;2022-08-07T14:12:31;1.58;;;1.45;;
32427;SDS011;18882;50.952;4.366;2022-08-07T14:15:28;2.47;;;1.30;;
32427;SDS011;18882;50.952;4.366;2022-08-07T14:17:58;2.53;;;1.40;;
32427;SDS011;18882;50.952;4.366;2022-08-07T14:20:29;2.50;;;1.40;;
32427;SDS011;18882;50.952;4.366;2022-08-07T14:23:08;3.08;;;1.40;;
32427;SDS011;18882;50.952;4.366;2022-08-07T14:25:40;1.73;;;1.25;;
32427;SDS011;18882;50.952;4.366;2022-08-07T14:28:08;2.45;;;1.40;;
32427;SDS011;18882;50.952;4.366;2022-08-07T14:30:38;1.63;;;1.30;;
32427;SDS011;18882;50.952;4.366;2022-08-07T14:33:04;3.00;;;1.52;;
32427;SDS011;18882;50.952;4.366;2022-08-07T14:35:32;1.63;;;1.30;;
32427;SDS011;18882;50.952;4.366;2022-08-07T14:38:01;1.45;;;1.35;;
32427;SDS011;18882;50.952;4.366;2022-08-07T14:40:28;3.20;;;1.75;;
32427;SDS011;18882;50.952;4.366;2022-08-07T14:42:59;1.85;;;1.50;;
32427;SDS011;18882;50.952;4.366;2022-08-07T14:45:32;2.42;;;1.42;;
32427;SDS011;18882;50.952;4.366;2022-08-07T14:48:07;2.33;;;1.20;;
32427;SDS011;18882;50.952;4.366;2022-08-07T14:50:44;1.73;;;1.20;;
32427;SDS011;18882;50.952;4.366;2022-08-07T14:53:15;1.58;;;1.33;;
32427;SDS011;18882;50.952;4.366;2022-08-07T14:56:06;2.00;;;1.77;;
32427;SDS011;18882;50.952;4.366;2022-08-07T14:58:34;3.25;;;1.40;;
32427;SDS011;18882;50.952;4.366;2022-08-07T15:01:03;1.33;;;1.02;;
32427;SDS011;18882;50.952;4.366;2022-08-07T15:03:30;2.58;;;1.55;;
32427;SDS011;18882;50.952;4.366;2022-08-07T15:05:57;2.78;;;1.38;;
32427;SDS011;18882;50.952;4.366;2022-08-07T15:08:28;2.13;;;1.20;;
32427;SDS011;18882;50.952;4.366;2022-08-07T15:11:10;3.15;;;1.08;;
32427;SDS011;18882;50.952;4.366;2022-08-07T15:14:00;1.50;;;1.00;;
32427;SDS011;18882;50.952;4.366;2022-08-07T15:16:32;1.50;;;1.15;;
32427;SDS011;18882;50.952;4.366;2022-08-07T15:19:12;3.70;;;1.23;;
32427;SDS011;18882;50.952;4.366;2022-08-07T15:21:44;1.63;;;1.10;;
32427;SDS011;18882;50.952;4.366;2022-08-07T15:24:14;2.30;;;1.30;;
32427;SDS011;18882;50.952;4.366;2022-08-07T15:26:44;1.13;;;1.02;;
32427;SDS011;18882;50.952;4.366;2022-08-07T15:29:15;1.15;;;1.00;;
32427;SDS011;18882;50.952;4.366;2022-08-07T15:31:43;1.73;;;1.23;;
32427;SDS011;18882;50.952;4.366;2022-08-07T15:34:12;1.48;;;1.00;;
32427;SDS011;18882;50.952;4.366;2022-08-07T15:36:38;2.38;;;1.30;;
32427;SDS011;18882;50.952;4.366;2022-08-07T15:39:05;1.40;;;1.00;;
32427;SDS011;18882;50.952;4.366;2022-08-07T15:41:36;1.70;;;1.40;;
32427;SDS011;18882;50.952;4.366;2022-08-07T15:44:11;2.13;;;1.20;;
32427;SDS011;18882;50.952;4.366;2022-08-07T15:46:41;2.17;;;1.17;;
32427;SDS011;18882;50.952;4.366;2022-08-07T15:49:09;1.58;;;1.25;;
32427;SDS011;18882;50.952;4.366;2022-08-07T15:51:39;6.03;;;1.48;;
32427;SDS011;18882;50.952;4.366;2022-08-07T15:54:10;0.82;;;0.82;;
32427;SDS011;18882;50.952;4.366;2022-08-07T15:56:37;3.85;;;1.13;;
32427;SDS011;18882;50.952;4.366;2022-08-07T15:59:06;0.95;;;0.88;;
32427;SDS011;18882;50.952;4.366;2022-08-07T16:01:39;1.90;;;1.17;;
32427;SDS011;18882;50.952;4.366;2022-08-07T16:04:12;1.70;;;1.25;;
32427;SDS011;18882;50.952;4.366;2022-08-07T16:06:47;3.22;;;1.20;;
32427;SDS011;18882;50.952;4.366;2022-08-07T16:14:19;3.60;;;1.15;;
32427;SDS011;18882;50.952;4.366;2022-08-07T16:23:17;1.75;;;1.17;;
32427;SDS011;18882;50.952;4.366;2022-08-07T16:33:41;1.50;;;1.38;;
32427;SDS011;18882;50.952;4.366;2022-08-07T16:58:21;4.22;;;1.60;;
32427;SDS011;18882;50.952;4.366;2022-08-07T17:03:36;1.63;;;1.40;;
32427;SDS011;18882;50.952;4.366;2022-08-07T17:12:09;1.63;;;1.52;;
32427;SDS011;18882;50.952;4.366;2022-08-07T17:17:50;2.55;;;2.28;;
32427;SDS011;18882;50.952;4.366;2022-08-07T17:20:12;1.80;;;1.70;;
32427;SDS011;18882;50.952;4.366;2022-08-07T17:22:55;7.50;;;1.80;;
32427;SDS011;18882;50.952;4.366;2022-08-07T17:25:26;2.85;;;1.42;;
32427;SDS011;18882;50.952;4.366;2022-08-07T17:28:08;2.60;;;1.67;;
32427;SDS011;18882;50.952;4.366;2022-08-07T17:30:41;1.33;;;1.15;;
32427;SDS011;18882;50.952;4.366;2022-08-07T17:33:13;1.83;;;1.20;;
32427;SDS011;18882;50.952;4.366;2022-08-07T17:38:30;2.22;;;1.42;;
32427;SDS011;18882;50.952;4.366;2022-08-07T17:41:11;3.10;;;1.70;;
32427;SDS011;18882;50.952;4.366;2022-08-07T17:43:42;3.22;;;1.38;;
32427;SDS011;18882;50.952;4.366;2022-08-07T17:46:36;5.32;;;1.40;;
32427;SDS011;18882;50.952;4.366;2022-08-07T17:49:22;1.90;;;1.40;;
32427;SDS011;18882;50.952;4.366;2022-08-07T17:52:17;2.00;;;1.67;;
32427;SDS011;18882;50.952;4.366;2022-08-07T17:55:06;2.47;;;1.75;;
32427;SDS011;18882;50.952;4.366;2022-08-07T18:00:26;2.55;;;1.35;;
32427;SDS011;18882;50.952;4.366;2022-08-07T18:05:33;2.42;;;1.35;;
32427;SDS011;18882;50.952;4.366;2022-08-07T18:10:30;2.83;;;1.85;;
32427;SDS011;18882;50.952;4.366;2022-08-07T18:18:25;3.88;;;1.85;;
32427;SDS011;18882;50.952;4.366;2022-08-07T18:21:01;1.85;;;1.42;;
32427;SDS011;18882;50.952;4.366;2022-08-07T18:23:38;3.50;;;1.58;;
32427;SDS011;18882;50.952;4.366;2022-08-07T18:26:17;4.88;;;1.70;;
32427;SDS011;18882;50.952;4.366;2022-08-07T18:34:06;7.55;;;1.70;;
32427;SDS011;18882;50.952;4.366;2022-08-07T18:36:48;3.33;;;1.40;;
32427;SDS011;18882;50.952;4.366;2022-08-07T18:42:21;5.95;;;1.70;;
32427;SDS011;18882;50.952;4.366;2022-08-07T18:47:27;1.90;;;1.65;;
32427;SDS011;18882;50.952;4.366;2022-08-07T19:00:32;1.35;;;1.25;;
32427;SDS011;18882;50.952;4.366;2022-08-07T19:03:17;3.85;;;1.92;;